Southern Sonoma County Latest

20 Stations

15 Minute Data
as of 5/8/26 11:33 AM PDT
Station Date Time Temp (°F) RH (%) Dew Pt (°F) Wind Spd (mph) Wind Dir (°) Wind Gust (mph) Latest Rain (In) Daily Rain (In) Daily Min Temp (°F) Daily Max Temp (°F)
Upper Rincon Valley 5/8/26 1130 64.1   5.9 63   21 51.4   2.1 3.3   0.6 SW | 217 6.5   0.4 0.00 0.00 48.0   0.1 64.6   5.5
Lower Bennett Valley 5/8/26 1130 65.9   4.6 67   12 54.7   0.0 3.8   1.6 N | 359 8.3   3.5 0.00 0.00 49.2   0.7 66.3   4.5
Kenwood (Wildwood) 5/8/26 1130 65.9   2.1 65   9 53.8   1.5 2.2   0.8 NE | 50 6.4   2.5 0.00 0.00 50.1   2.3 66.9   1.8
Crane Creek (Ranch 62) 5/8/26 1130 63.0   2.2 69   6 52.8   0.3 4.6   3.4 SSW | 208 10.0   6.8 0.00 0.00 49.8   1.0 64.4   2.1
Rohnert Park-West (Stony Point) 5/8/26 1130 61.1   3.8 79   14 54.6   0.7 3.6   1.8 SSW | 199 7.7   2.0 0.00 0.00 50.4   0.8 61.1   3.6
Rice-Spivak Vineyard 5/8/26 1130 62.4   2.2 - - - - - - - 49.9   0.9 63.3   2.0
Cartograph Wines Base 5/8/26 1130 59.1   2.2 86   7 54.8   0.1 5.9   2.7 SSW | 208 10.6   3.2 0.00 0.00 49.3   0.8 59.1   2.2
Cartograph Wines Remote 5/8/26 1130 62.6   4.2 - - - - - - - 50.0   0.9 62.6   3.2
Penngrove (Asellus) 5/8/26 1130 63.6   3.2 69   7 53.1   0.6 3.8   2.2 WSW | 245 9.0   4.3 0.00 0.00 49.8   1.1 64.5   3.2
Sonoma Valley (Bedrock) 5/8/26 1130 63.0   0.5 67   1 52.1   0.8 - - - 0.00 0.00 49.5   1.5 64.3   0.5
Sonoma-West (Arnold) 5/8/26 1130 66.0   2.0 65   8 53.7   1.3 1.6   1.0 S | 181 4.9   2.2 0.00 0.01 51.3   2.6 66.0   2.0
Sonoma Valley HS 5/8/26 1130 62.1   1.2 79   3 55.6   0.3 2.3   0.1 WNW | 302 4.6   1.2 0.00 0.00 51.1   0.3 62.7   0.9
Sonoma East (Bundschu01) 5/8/26 1130 61.6   0.2 74   0 53.4   0.1 3.9   2.1 SE | 141 7.2   3.1 0.00 0.00 51.3   0.4 64.3   2.3
Sonoma-SE (Napoli) 5/8/26 1130 61.2   0.3 72   2 52.1   1.1 2.8   0.3 NW | 320 5.1   0.0 0.00 0.00 50.8   0.7 62.1   0.0
Schellville (Sasaki) 2/7/26 1900 53.4   2.2 88   10 49.9   1.0 3.3   1.8 SW | 225 5.8   4.0 0.00 0.00 47.0   0.8 62.8   8.4
Petaluma (Ranch 10) 5/8/26 1130 64.5   2.8 64   8 52.1   0.5 5.3   1.9 W | 273 9.7   2.4 0.00 0.00 51.3   0.9 65.2   2.4
Carneros (Ranch 71) 5/8/26 1130 60.0   0.8 75   3 52.0   0.5 4.6   1.0 WNW | 282 9.6   1.6 0.00 0.00 49.8   1.0 60.8   1.0
Ricci Vineyards (Carneros) 5/8/26 1130 61.6   0.1 73   1 52.8   0.3 2.5   0.3 N | 356 6.5   0.5 0.00 0.00 51.0   0.4 62.4   0.1
Carneros Upper (Ranch 81) 5/8/26 1130 59.6   1.2 75   0 51.8   1.0 4.8   1.0 WNW | 282 9.1   0.9 - - 49.9   1.0 59.6   1.2
Carneros Lower (Ranch 81) 5/8/26 1130 61.2   0.7 74   1 53.0   1.0 1.6   0.4 NW | 324 5.3   1.8 0.00 0.00 51.3   0.2 61.9   0.6
Max     66.0 86 55.6 5.9 - 10.6 0.00 0.01 51.3 66.9
Avg     62.5 72 53.2 3.5 - 7.5 0.00 - - -
Min     59.1 63 51.4 1.6 - 4.6 0.00 0.00 48.0 59.1